sensor_id;sensor_type;location;lat;lon;timestamp;temperature;humidity
13744;DHT22;6943;52.368;9.966;2023-09-08T00:00:47;18.20;99.90
13744;DHT22;6943;52.368;9.966;2023-09-08T00:03:12;18.10;99.90
13744;DHT22;6943;52.368;9.966;2023-09-08T00:05:38;18.10;1.00
13744;DHT22;6943;52.368;9.966;2023-09-08T00:08:04;18.10;1.00
13744;DHT22;6943;52.368;9.966;2023-09-08T00:10:29;18.00;1.00
13744;DHT22;6943;52.368;9.966;2023-09-08T00:12:55;17.90;1.00
13744;DHT22;6943;52.368;9.966;2023-09-08T00:15:20;17.80;1.00
13744;DHT22;6943;52.368;9.966;2023-09-08T00:17:46;17.70;1.00
13744;DHT22;6943;52.368;9.966;2023-09-08T00:20:12;17.70;99.90
13744;DHT22;6943;52.368;9.966;2023-09-08T00:22:39;17.70;99.90
13744;DHT22;6943;52.368;9.966;2023-09-08T00:25:05;17.60;99.90
13744;DHT22;6943;52.368;9.966;2023-09-08T00:27:31;17.60;99.90
13744;DHT22;6943;52.368;9.966;2023-09-08T00:29:57;17.50;1.00
13744;DHT22;6943;52.368;9.966;2023-09-08T00:32:22;17.50;1.00
13744;DHT22;6943;52.368;9.966;2023-09-08T00:34:48;17.50;1.00
13744;DHT22;6943;52.368;9.966;2023-09-08T00:37:13;17.50;1.00
13744;DHT22;6943;52.368;9.966;2023-09-08T00:39:39;17.40;1.00
13744;DHT22;6943;52.368;9.966;2023-09-08T00:42:05;17.40;1.00
13744;DHT22;6943;52.368;9.966;2023-09-08T00:44:31;17.40;1.00
13744;DHT22;6943;52.368;9.966;2023-09-08T00:46:57;17.40;1.00
13744;DHT22;6943;52.368;9.966;2023-09-08T00:49:22;17.40;1.00
13744;DHT22;6943;52.368;9.966;2023-09-08T00:51:48;17.40;1.00
13744;DHT22;6943;52.368;9.966;2023-09-08T00:54:14;17.40;1.00
13744;DHT22;6943;52.368;9.966;2023-09-08T00:56:40;17.30;1.00
13744;DHT22;6943;52.368;9.966;2023-09-08T00:59:07;17.30;1.00
13744;DHT22;6943;52.368;9.966;2023-09-08T01:01:33;17.30;1.00
13744;DHT22;6943;52.368;9.966;2023-09-08T01:04:00;17.30;1.00
13744;DHT22;6943;52.368;9.966;2023-09-08T01:06:26;17.20;1.00
13744;DHT22;6943;52.368;9.966;2023-09-08T01:08:52;17.10;99.90
13744;DHT22;6943;52.368;9.966;2023-09-08T01:11:19;17.10;99.90
13744;DHT22;6943;52.368;9.966;2023-09-08T01:13:45;17.00;1.00
13744;DHT22;6943;52.368;9.966;2023-09-08T01:16:11;17.00;1.00
13744;DHT22;6943;52.368;9.966;2023-09-08T01:18:37;16.90;1.00
13744;DHT22;6943;52.368;9.966;2023-09-08T01:26:42;16.70;1.00
13744;DHT22;6943;52.368;9.966;2023-09-08T01:29:10;16.70;1.00
13744;DHT22;6943;52.368;9.966;2023-09-08T01:31:37;16.60;1.00
13744;DHT22;6943;52.368;9.966;2023-09-08T01:34:04;16.60;1.00
13744;DHT22;6943;52.368;9.966;2023-09-08T01:36:33;16.50;1.00
13744;DHT22;6943;52.368;9.966;2023-09-08T01:38:59;16.50;1.00
13744;DHT22;6943;52.368;9.966;2023-09-08T01:41:25;16.40;99.90
13744;DHT22;6943;52.368;9.966;2023-09-08T01:43:51;16.40;99.90
13744;DHT22;6943;52.368;9.966;2023-09-08T01:46:16;16.30;1.00
13744;DHT22;6943;52.368;9.966;2023-09-08T01:48:41;16.30;1.00
13744;DHT22;6943;52.368;9.966;2023-09-08T01:51:07;16.20;1.00
13744;DHT22;6943;52.368;9.966;2023-09-08T01:53:32;16.30;1.00
13744;DHT22;6943;52.368;9.966;2023-09-08T01:55:58;16.20;1.00
13744;DHT22;6943;52.368;9.966;2023-09-08T01:58:23;16.20;1.00
13744;DHT22;6943;52.368;9.966;2023-09-08T02:00:52;16.20;96.30
13744;DHT22;6943;52.368;9.966;2023-09-08T02:03:17;16.20;99.90
13744;DHT22;6943;52.368;9.966;2023-09-08T02:05:44;16.20;1.00
13744;DHT22;6943;52.368;9.966;2023-09-08T02:08:09;16.10;99.90
13744;DHT22;6943;52.368;9.966;2023-09-08T02:10:35;16.10;99.90
13744;DHT22;6943;52.368;9.966;2023-09-08T02:13:00;16.00;99.90
13744;DHT22;6943;52.368;9.966;2023-09-08T02:15:26;16.00;99.90
13744;DHT22;6943;52.368;9.966;2023-09-08T02:17:53;15.90;1.00
13744;DHT22;6943;52.368;9.966;2023-09-08T02:20:20;15.80;1.00
13744;DHT22;6943;52.368;9.966;2023-09-08T02:22:45;15.80;1.00
13744;DHT22;6943;52.368;9.966;2023-09-08T02:25:13;15.80;1.00
13744;DHT22;6943;52.368;9.966;2023-09-08T02:27:39;15.80;1.00
13744;DHT22;6943;52.368;9.966;2023-09-08T02:30:05;15.80;1.00
13744;DHT22;6943;52.368;9.966;2023-09-08T02:32:31;15.80;1.00
13744;DHT22;6943;52.368;9.966;2023-09-08T02:34:56;15.70;1.00
13744;DHT22;6943;52.368;9.966;2023-09-08T02:37:21;15.70;1.00
13744;DHT22;6943;52.368;9.966;2023-09-08T02:39:47;15.90;1.00
13744;DHT22;6943;52.368;9.966;2023-09-08T02:42:12;15.90;1.00
13744;DHT22;6943;52.368;9.966;2023-09-08T02:44:38;15.90;1.00
13744;DHT22;6943;52.368;9.966;2023-09-08T02:47:03;15.80;1.00
13744;DHT22;6943;52.368;9.966;2023-09-08T02:49:31;15.80;1.00
13744;DHT22;6943;52.368;9.966;2023-09-08T02:51:57;15.70;1.00
13744;DHT22;6943;52.368;9.966;2023-09-08T02:54:23;15.70;1.00
13744;DHT22;6943;52.368;9.966;2023-09-08T02:56:48;15.60;1.00
13744;DHT22;6943;52.368;9.966;2023-09-08T02:59:14;15.60;1.00
13744;DHT22;6943;52.368;9.966;2023-09-08T03:01:39;15.50;31.40
13744;DHT22;6943;52.368;9.966;2023-09-08T03:04:05;15.60;99.90
13744;DHT22;6943;52.368;9.966;2023-09-08T03:06:30;15.60;1.00
13744;DHT22;6943;52.368;9.966;2023-09-08T03:08:58;15.60;5.80
13744;DHT22;6943;52.368;9.966;2023-09-08T03:11:24;15.50;1.00
13744;DHT22;6943;52.368;9.966;2023-09-08T03:13:49;15.50;43.70
13744;DHT22;6943;52.368;9.966;2023-09-08T03:16:15;15.50;85.50
13744;DHT22;6943;52.368;9.966;2023-09-08T03:18:41;15.50;99.90
13744;DHT22;6943;52.368;9.966;2023-09-08T03:21:07;15.40;99.90
13744;DHT22;6943;52.368;9.966;2023-09-08T03:23:40;15.40;99.90
13744;DHT22;6943;52.368;9.966;2023-09-08T03:26:06;15.40;99.90
13744;DHT22;6943;52.368;9.966;2023-09-08T03:28:32;15.50;99.90
13744;DHT22;6943;52.368;9.966;2023-09-08T03:30:58;15.50;99.90
13744;DHT22;6943;52.368;9.966;2023-09-08T03:33:24;15.60;99.90
13744;DHT22;6943;52.368;9.966;2023-09-08T03:35:49;15.50;99.90
13744;DHT22;6943;52.368;9.966;2023-09-08T03:38:15;15.50;99.90
13744;DHT22;6943;52.368;9.966;2023-09-08T03:40:40;15.50;99.90
13744;DHT22;6943;52.368;9.966;2023-09-08T03:43:06;15.50;99.90
13744;DHT22;6943;52.368;9.966;2023-09-08T03:45:31;15.40;1.00
13744;DHT22;6943;52.368;9.966;2023-09-08T03:47:57;15.30;1.00
13744;DHT22;6943;52.368;9.966;2023-09-08T03:50:22;15.30;1.00
13744;DHT22;6943;52.368;9.966;2023-09-08T03:52:48;15.20;1.00
13744;DHT22;6943;52.368;9.966;2023-09-08T03:55:13;15.20;1.00
13744;DHT22;6943;52.368;9.966;2023-09-08T03:57:39;15.20;1.00
13744;DHT22;6943;52.368;9.966;2023-09-08T04:00:05;15.20;1.00
13744;DHT22;6943;52.368;9.966;2023-09-08T04:02:32;15.20;1.00
13744;DHT22;6943;52.368;9.966;2023-09-08T04:04:57;15.10;1.00
13744;DHT22;6943;52.368;9.966;2023-09-08T04:07:23;15.10;1.00
13744;DHT22;6943;52.368;9.966;2023-09-08T04:09:48;15.10;1.00
13744;DHT22;6943;52.368;9.966;2023-09-08T04:12:14;15.10;1.00
13744;DHT22;6943;52.368;9.966;2023-09-08T04:14:39;15.00;1.00
13744;DHT22;6943;52.368;9.966;2023-09-08T04:17:05;15.00;1.00
13744;DHT22;6943;52.368;9.966;2023-09-08T04:19:31;14.90;13.30
13744;DHT22;6943;52.368;9.966;2023-09-08T04:21:56;14.90;45.00
13744;DHT22;6943;52.368;9.966;2023-09-08T04:24:22;14.80;67.50
13744;DHT22;6943;52.368;9.966;2023-09-08T04:26:47;14.80;97.70
13744;DHT22;6943;52.368;9.966;2023-09-08T04:29:13;14.70;99.90
13744;DHT22;6943;52.368;9.966;2023-09-08T04:31:38;14.70;99.90
13744;DHT22;6943;52.368;9.966;2023-09-08T04:34:04;14.70;99.90
13744;DHT22;6943;52.368;9.966;2023-09-08T04:36:29;14.70;99.90
13744;DHT22;6943;52.368;9.966;2023-09-08T04:38:56;14.80;99.90
13744;DHT22;6943;52.368;9.966;2023-09-08T04:41:22;14.80;99.90
13744;DHT22;6943;52.368;9.966;2023-09-08T04:43:47;14.70;99.90
13744;DHT22;6943;52.368;9.966;2023-09-08T04:46:13;14.80;99.90
13744;DHT22;6943;52.368;9.966;2023-09-08T04:48:38;14.70;99.90
13744;DHT22;6943;52.368;9.966;2023-09-08T04:51:04;14.70;99.90
13744;DHT22;6943;52.368;9.966;2023-09-08T04:53:29;14.70;99.90
13744;DHT22;6943;52.368;9.966;2023-09-08T04:55:55;14.70;99.90
13744;DHT22;6943;52.368;9.966;2023-09-08T04:58:20;14.80;85.00
13744;DHT22;6943;52.368;9.966;2023-09-08T05:00:46;14.80;69.60
13744;DHT22;6943;52.368;9.966;2023-09-08T05:03:12;14.90;84.30
13744;DHT22;6943;52.368;9.966;2023-09-08T05:05:37;15.00;1.00
13744;DHT22;6943;52.368;9.966;2023-09-08T05:08:04;15.00;1.00
13744;DHT22;6943;52.368;9.966;2023-09-08T05:10:30;15.00;1.00
13744;DHT22;6943;52.368;9.966;2023-09-08T05:12:55;15.50;1.00
13744;DHT22;6943;52.368;9.966;2023-09-08T05:15:21;16.50;1.00
13744;DHT22;6943;52.368;9.966;2023-09-08T05:17:47;17.40;99.90
13744;DHT22;6943;52.368;9.966;2023-09-08T05:20:12;18.10;1.00
13744;DHT22;6943;52.368;9.966;2023-09-08T05:22:38;18.80;1.00
13744;DHT22;6943;52.368;9.966;2023-09-08T05:25:04;19.00;1.00
13744;DHT22;6943;52.368;9.966;2023-09-08T05:27:30;19.40;99.90
13744;DHT22;6943;52.368;9.966;2023-09-08T05:29:56;19.70;1.00
13744;DHT22;6943;52.368;9.966;2023-09-08T05:32:22;19.90;1.00
13744;DHT22;6943;52.368;9.966;2023-09-08T05:34:47;20.30;1.00
13744;DHT22;6943;52.368;9.966;2023-09-08T05:37:13;20.50;1.00
13744;DHT22;6943;52.368;9.966;2023-09-08T05:39:38;20.80;99.90
13744;DHT22;6943;52.368;9.966;2023-09-08T05:42:04;21.00;99.90
13744;DHT22;6943;52.368;9.966;2023-09-08T05:44:30;21.60;1.00
13744;DHT22;6943;52.368;9.966;2023-09-08T05:46:55;22.00;1.00
13744;DHT22;6943;52.368;9.966;2023-09-08T05:49:21;22.60;1.00
13744;DHT22;6943;52.368;9.966;2023-09-08T05:51:46;23.30;1.00
13744;DHT22;6943;52.368;9.966;2023-09-08T05:54:12;23.60;1.00
13744;DHT22;6943;52.368;9.966;2023-09-08T05:56:38;23.50;1.00
13744;DHT22;6943;52.368;9.966;2023-09-08T05:59:03;23.40;1.00
13744;DHT22;6943;52.368;9.966;2023-09-08T06:01:30;23.30;1.00
13744;DHT22;6943;52.368;9.966;2023-09-08T06:03:56;23.30;1.00
13744;DHT22;6943;52.368;9.966;2023-09-08T06:06:22;24.10;1.00
13744;DHT22;6943;52.368;9.966;2023-09-08T06:08:48;24.50;1.00
13744;DHT22;6943;52.368;9.966;2023-09-08T06:11:13;24.70;1.00
13744;DHT22;6943;52.368;9.966;2023-09-08T06:13:39;24.50;1.00
13744;DHT22;6943;52.368;9.966;2023-09-08T06:16:05;24.10;1.00
13744;DHT22;6943;52.368;9.966;2023-09-08T06:18:30;23.90;1.00
13744;DHT22;6943;52.368;9.966;2023-09-08T06:20:56;23.70;1.00
13744;DHT22;6943;52.368;9.966;2023-09-08T06:23:22;23.80;1.00
13744;DHT22;6943;52.368;9.966;2023-09-08T06:25:49;24.60;1.00
13744;DHT22;6943;52.368;9.966;2023-09-08T06:28:14;24.90;1.00
13744;DHT22;6943;52.368;9.966;2023-09-08T06:30:40;25.80;1.00
13744;DHT22;6943;52.368;9.966;2023-09-08T06:33:07;26.30;1.00
13744;DHT22;6943;52.368;9.966;2023-09-08T06:35:33;27.00;1.00
13744;DHT22;6943;52.368;9.966;2023-09-08T06:37:59;27.20;1.00
13744;DHT22;6943;52.368;9.966;2023-09-08T06:40:25;28.40;1.00
13744;DHT22;6943;52.368;9.966;2023-09-08T06:42:51;28.50;1.00
13744;DHT22;6943;52.368;9.966;2023-09-08T06:45:16;29.30;1.00
13744;DHT22;6943;52.368;9.966;2023-09-08T06:47:43;29.00;99.90
13744;DHT22;6943;52.368;9.966;2023-09-08T06:50:09;28.50;99.90
13744;DHT22;6943;52.368;9.966;2023-09-08T06:52:35;27.20;99.90
13744;DHT22;6943;52.368;9.966;2023-09-08T06:55:01;28.40;99.90
13744;DHT22;6943;52.368;9.966;2023-09-08T06:57:26;27.50;99.90
13744;DHT22;6943;52.368;9.966;2023-09-08T06:59:52;27.00;99.90
13744;DHT22;6943;52.368;9.966;2023-09-08T07:02:17;26.80;1.00
13744;DHT22;6943;52.368;9.966;2023-09-08T07:04:43;28.10;99.90
13744;DHT22;6943;52.368;9.966;2023-09-08T07:07:09;29.00;99.90
13744;DHT22;6943;52.368;9.966;2023-09-08T07:09:36;30.90;99.90
13744;DHT22;6943;52.368;9.966;2023-09-08T07:12:03;32.50;99.90
13744;DHT22;6943;52.368;9.966;2023-09-08T07:14:29;33.40;99.90
13744;DHT22;6943;52.368;9.966;2023-09-08T07:16:54;35.30;99.90
13744;DHT22;6943;52.368;9.966;2023-09-08T07:19:20;32.90;99.90
13744;DHT22;6943;52.368;9.966;2023-09-08T07:21:45;32.80;99.90
13744;DHT22;6943;52.368;9.966;2023-09-08T07:24:10;30.70;99.90
13744;DHT22;6943;52.368;9.966;2023-09-08T07:26:37;30.00;99.90
13744;DHT22;6943;52.368;9.966;2023-09-08T07:29:03;31.00;99.90
13744;DHT22;6943;52.368;9.966;2023-09-08T07:31:28;31.20;99.90
13744;DHT22;6943;52.368;9.966;2023-09-08T07:33:54;31.00;99.90
13744;DHT22;6943;52.368;9.966;2023-09-08T07:36:19;30.40;99.90
13744;DHT22;6943;52.368;9.966;2023-09-08T07:38:45;29.90;99.90
13744;DHT22;6943;52.368;9.966;2023-09-08T07:41:11;29.80;99.90
13744;DHT22;6943;52.368;9.966;2023-09-08T07:43:37;29.60;99.90
13744;DHT22;6943;52.368;9.966;2023-09-08T07:46:06;30.00;99.90
13744;DHT22;6943;52.368;9.966;2023-09-08T07:48:31;30.50;99.90
13744;DHT22;6943;52.368;9.966;2023-09-08T07:50:57;31.90;99.90
13744;DHT22;6943;52.368;9.966;2023-09-08T07:53:25;33.30;99.90
13744;DHT22;6943;52.368;9.966;2023-09-08T07:55:50;34.50;99.90
13744;DHT22;6943;52.368;9.966;2023-09-08T07:58:16;33.50;99.90
13744;DHT22;6943;52.368;9.966;2023-09-08T08:00:41;34.20;99.90
13744;DHT22;6943;52.368;9.966;2023-09-08T08:03:07;31.30;99.90
13744;DHT22;6943;52.368;9.966;2023-09-08T08:05:33;30.50;99.90
13744;DHT22;6943;52.368;9.966;2023-09-08T08:07:59;30.50;99.90
13744;DHT22;6943;52.368;9.966;2023-09-08T08:10:25;30.80;99.90
13744;DHT22;6943;52.368;9.966;2023-09-08T08:12:50;30.70;99.90
13744;DHT22;6943;52.368;9.966;2023-09-08T08:15:18;31.00;99.90
13744;DHT22;6943;52.368;9.966;2023-09-08T08:17:44;31.40;99.90
13744;DHT22;6943;52.368;9.966;2023-09-08T08:20:10;32.80;99.90
13744;DHT22;6943;52.368;9.966;2023-09-08T08:22:45;32.10;99.90
13744;DHT22;6943;52.368;9.966;2023-09-08T08:25:11;31.50;99.90
13744;DHT22;6943;52.368;9.966;2023-09-08T08:27:39;32.20;99.90
13744;DHT22;6943;52.368;9.966;2023-09-08T08:30:08;33.00;99.90
13744;DHT22;6943;52.368;9.966;2023-09-08T08:32:34;32.60;99.90
13744;DHT22;6943;52.368;9.966;2023-09-08T08:35:00;32.40;99.90
13744;DHT22;6943;52.368;9.966;2023-09-08T08:37:25;32.60;99.90
13744;DHT22;6943;52.368;9.966;2023-09-08T08:39:51;32.20;99.90
13744;DHT22;6943;52.368;9.966;2023-09-08T08:42:16;32.50;99.90
13744;DHT22;6943;52.368;9.966;2023-09-08T08:44:42;34.00;99.90
13744;DHT22;6943;52.368;9.966;2023-09-08T08:47:10;34.20;99.90
13744;DHT22;6943;52.368;9.966;2023-09-08T08:49:36;33.90;99.90
13744;DHT22;6943;52.368;9.966;2023-09-08T08:52:03;33.00;99.90
13744;DHT22;6943;52.368;9.966;2023-09-08T08:54:34;32.20;99.90
13744;DHT22;6943;52.368;9.966;2023-09-08T08:57:03;32.40;99.90
13744;DHT22;6943;52.368;9.966;2023-09-08T08:59:29;32.50;99.90
13744;DHT22;6943;52.368;9.966;2023-09-08T09:01:56;32.70;99.90
13744;DHT22;6943;52.368;9.966;2023-09-08T09:04:22;32.50;99.90
13744;DHT22;6943;52.368;9.966;2023-09-08T09:06:49;31.20;99.90
13744;DHT22;6943;52.368;9.966;2023-09-08T09:09:16;30.50;99.90
13744;DHT22;6943;52.368;9.966;2023-09-08T09:11:42;30.50;99.90
13744;DHT22;6943;52.368;9.966;2023-09-08T09:14:08;30.70;99.90
13744;DHT22;6943;52.368;9.966;2023-09-08T09:16:39;30.30;99.90
13744;DHT22;6943;52.368;9.966;2023-09-08T09:19:05;30.70;99.90
13744;DHT22;6943;52.368;9.966;2023-09-08T09:21:48;31.30;99.90
13744;DHT22;6943;52.368;9.966;2023-09-08T09:24:27;29.70;99.90
13744;DHT22;6943;52.368;9.966;2023-09-08T09:26:53;28.10;99.90
13744;DHT22;6943;52.368;9.966;2023-09-08T09:29:19;27.50;99.90
13744;DHT22;6943;52.368;9.966;2023-09-08T09:32:11;26.50;99.90
13744;DHT22;6943;52.368;9.966;2023-09-08T09:34:47;25.80;99.90
13744;DHT22;6943;52.368;9.966;2023-09-08T09:37:14;25.70;99.90
13744;DHT22;6943;52.368;9.966;2023-09-08T09:39:39;25.50;1.00
13744;DHT22;6943;52.368;9.966;2023-09-08T09:42:05;25.40;1.00
13744;DHT22;6943;52.368;9.966;2023-09-08T09:44:31;25.20;1.00
13744;DHT22;6943;52.368;9.966;2023-09-08T09:46:57;25.30;1.00
13744;DHT22;6943;52.368;9.966;2023-09-08T09:49:23;25.30;1.00
13744;DHT22;6943;52.368;9.966;2023-09-08T09:51:53;25.30;99.90
13744;DHT22;6943;52.368;9.966;2023-09-08T09:54:19;25.40;1.00
13744;DHT22;6943;52.368;9.966;2023-09-08T09:56:45;25.40;99.90
13744;DHT22;6943;52.368;9.966;2023-09-08T09:59:13;25.40;99.90
13744;DHT22;6943;52.368;9.966;2023-09-08T10:01:40;25.60;1.00
13744;DHT22;6943;52.368;9.966;2023-09-08T10:04:06;25.70;1.00
13744;DHT22;6943;52.368;9.966;2023-09-08T10:06:33;25.70;1.00
13744;DHT22;6943;52.368;9.966;2023-09-08T10:09:00;25.80;1.00
13744;DHT22;6943;52.368;9.966;2023-09-08T10:11:29;25.80;1.00
13744;DHT22;6943;52.368;9.966;2023-09-08T10:13:58;25.60;1.00
13744;DHT22;6943;52.368;9.966;2023-09-08T10:16:26;25.80;1.00
13744;DHT22;6943;52.368;9.966;2023-09-08T10:18:53;25.90;99.90
13744;DHT22;6943;52.368;9.966;2023-09-08T10:21:21;26.00;99.90
13744;DHT22;6943;52.368;9.966;2023-09-08T10:23:59;25.80;99.90
13744;DHT22;6943;52.368;9.966;2023-09-08T10:26:30;25.90;99.90
13744;DHT22;6943;52.368;9.966;2023-09-08T10:28:57;26.00;99.90
13744;DHT22;6943;52.368;9.966;2023-09-08T10:31:26;26.20;99.90
13744;DHT22;6943;52.368;9.966;2023-09-08T10:33:54;26.20;99.90
13744;DHT22;6943;52.368;9.966;2023-09-08T10:36:20;26.40;99.90
13744;DHT22;6943;52.368;9.966;2023-09-08T10:38:46;26.40;99.90
13744;DHT22;6943;52.368;9.966;2023-09-08T10:43:43;26.60;99.90
13744;DHT22;6943;52.368;9.966;2023-09-08T10:46:09;26.50;99.90
13744;DHT22;6943;52.368;9.966;2023-09-08T10:48:44;26.60;99.90
13744;DHT22;6943;52.368;9.966;2023-09-08T10:51:18;26.60;99.90
13744;DHT22;6943;52.368;9.966;2023-09-08T10:53:47;26.60;99.90
13744;DHT22;6943;52.368;9.966;2023-09-08T10:56:14;26.70;99.90
13744;DHT22;6943;52.368;9.966;2023-09-08T10:58:39;26.90;99.90
13744;DHT22;6943;52.368;9.966;2023-09-08T11:01:16;26.90;99.90
13744;DHT22;6943;52.368;9.966;2023-09-08T11:03:44;26.90;99.90
13744;DHT22;6943;52.368;9.966;2023-09-08T11:06:11;26.80;99.90
13744;DHT22;6943;52.368;9.966;2023-09-08T11:08:38;26.90;99.90
13744;DHT22;6943;52.368;9.966;2023-09-08T11:11:04;26.90;99.90
13744;DHT22;6943;52.368;9.966;2023-09-08T11:13:29;27.00;99.90
13744;DHT22;6943;52.368;9.966;2023-09-08T11:15:55;27.10;99.90
13744;DHT22;6943;52.368;9.966;2023-09-08T11:18:28;27.30;99.90
13744;DHT22;6943;52.368;9.966;2023-09-08T11:20:54;27.50;99.90
13744;DHT22;6943;52.368;9.966;2023-09-08T11:23:21;27.50;99.90
13744;DHT22;6943;52.368;9.966;2023-09-08T11:25:47;27.40;1.00
13744;DHT22;6943;52.368;9.966;2023-09-08T11:28:13;27.50;1.00
13744;DHT22;6943;52.368;9.966;2023-09-08T11:30:41;27.50;1.00
13744;DHT22;6943;52.368;9.966;2023-09-08T11:33:17;27.50;1.00
13744;DHT22;6943;52.368;9.966;2023-09-08T11:35:45;27.60;1.00
13744;DHT22;6943;52.368;9.966;2023-09-08T11:38:11;27.80;1.00
13744;DHT22;6943;52.368;9.966;2023-09-08T11:40:37;27.80;1.00
13744;DHT22;6943;52.368;9.966;2023-09-08T11:43:04;27.90;1.00
13744;DHT22;6943;52.368;9.966;2023-09-08T11:45:33;27.90;1.00
13744;DHT22;6943;52.368;9.966;2023-09-08T11:47:59;28.00;1.00
13744;DHT22;6943;52.368;9.966;2023-09-08T11:50:24;28.00;99.90
13744;DHT22;6943;52.368;9.966;2023-09-08T11:52:51;28.00;99.90
13744;DHT22;6943;52.368;9.966;2023-09-08T11:55:18;28.10;99.90
13744;DHT22;6943;52.368;9.966;2023-09-08T11:57:47;28.10;99.90
13744;DHT22;6943;52.368;9.966;2023-09-08T12:00:13;28.20;99.90
13744;DHT22;6943;52.368;9.966;2023-09-08T12:02:42;28.30;99.90
13744;DHT22;6943;52.368;9.966;2023-09-08T12:05:21;28.50;99.90
13744;DHT22;6943;52.368;9.966;2023-09-08T12:07:52;28.50;99.90
13744;DHT22;6943;52.368;9.966;2023-09-08T12:10:18;28.50;99.90
13744;DHT22;6943;52.368;9.966;2023-09-08T12:12:47;28.50;99.90
13744;DHT22;6943;52.368;9.966;2023-09-08T12:15:29;28.60;99.90
13744;DHT22;6943;52.368;9.966;2023-09-08T12:17:57;28.50;99.90
13744;DHT22;6943;52.368;9.966;2023-09-08T12:20:22;28.40;99.90
13744;DHT22;6943;52.368;9.966;2023-09-08T12:22:49;28.40;99.90
13744;DHT22;6943;52.368;9.966;2023-09-08T12:25:18;28.50;99.90
13744;DHT22;6943;52.368;9.966;2023-09-08T12:27:45;28.60;99.90
13744;DHT22;6943;52.368;9.966;2023-09-08T12:30:17;28.60;99.90
13744;DHT22;6943;52.368;9.966;2023-09-08T12:32:46;28.70;99.90
13744;DHT22;6943;52.368;9.966;2023-09-08T12:35:13;28.70;99.90
13744;DHT22;6943;52.368;9.966;2023-09-08T12:37:44;28.90;99.90
13744;DHT22;6943;52.368;9.966;2023-09-08T12:40:10;29.00;99.90
13744;DHT22;6943;52.368;9.966;2023-09-08T12:42:35;28.90;99.90
13744;DHT22;6943;52.368;9.966;2023-09-08T12:45:01;29.00;99.90
13744;DHT22;6943;52.368;9.966;2023-09-08T12:47:26;28.80;99.90
13744;DHT22;6943;52.368;9.966;2023-09-08T12:49:52;28.80;99.90
13744;DHT22;6943;52.368;9.966;2023-09-08T12:52:17;28.80;99.90
13744;DHT22;6943;52.368;9.966;2023-09-08T12:54:43;28.80;99.90
13744;DHT22;6943;52.368;9.966;2023-09-08T12:57:08;28.90;99.90
13744;DHT22;6943;52.368;9.966;2023-09-08T12:59:34;29.00;99.90
13744;DHT22;6943;52.368;9.966;2023-09-08T13:01:59;29.00;99.90
13744;DHT22;6943;52.368;9.966;2023-09-08T13:04:25;29.00;99.90
13744;DHT22;6943;52.368;9.966;2023-09-08T13:06:51;29.00;99.90
13744;DHT22;6943;52.368;9.966;2023-09-08T13:09:16;29.10;99.90
13744;DHT22;6943;52.368;9.966;2023-09-08T13:11:42;29.20;99.90
13744;DHT22;6943;52.368;9.966;2023-09-08T13:14:08;29.20;99.90
13744;DHT22;6943;52.368;9.966;2023-09-08T13:16:34;29.20;99.90
13744;DHT22;6943;52.368;9.966;2023-09-08T13:18:59;29.30;99.90
13744;DHT22;6943;52.368;9.966;2023-09-08T13:21:25;29.20;99.90
13744;DHT22;6943;52.368;9.966;2023-09-08T13:23:50;29.20;99.90
13744;DHT22;6943;52.368;9.966;2023-09-08T13:26:16;29.20;99.90
13744;DHT22;6943;52.368;9.966;2023-09-08T13:28:42;29.10;99.90
13744;DHT22;6943;52.368;9.966;2023-09-08T13:31:08;29.20;99.90
13744;DHT22;6943;52.368;9.966;2023-09-08T13:33:33;29.20;99.90
13744;DHT22;6943;52.368;9.966;2023-09-08T13:35:59;29.10;99.90
13744;DHT22;6943;52.368;9.966;2023-09-08T13:38:25;29.20;99.90
13744;DHT22;6943;52.368;9.966;2023-09-08T13:40:50;29.20;99.90
13744;DHT22;6943;52.368;9.966;2023-09-08T13:43:16;29.20;99.90
13744;DHT22;6943;52.368;9.966;2023-09-08T13:45:41;29.30;99.90
13744;DHT22;6943;52.368;9.966;2023-09-08T13:48:08;29.30;99.90
13744;DHT22;6943;52.368;9.966;2023-09-08T13:50:33;29.40;99.90
13744;DHT22;6943;52.368;9.966;2023-09-08T13:52:59;29.40;99.90
13744;DHT22;6943;52.368;9.966;2023-09-08T13:55:24;29.50;99.90
13744;DHT22;6943;52.368;9.966;2023-09-08T13:57:50;29.50;99.90
13744;DHT22;6943;52.368;9.966;2023-09-08T14:00:17;29.60;99.90
13744;DHT22;6943;52.368;9.966;2023-09-08T14:02:43;29.50;99.90
13744;DHT22;6943;52.368;9.966;2023-09-08T14:05:09;29.50;99.90
13744;DHT22;6943;52.368;9.966;2023-09-08T14:07:34;29.40;99.90
13744;DHT22;6943;52.368;9.966;2023-09-08T14:10:00;29.50;99.90
13744;DHT22;6943;52.368;9.966;2023-09-08T14:12:26;29.50;99.90
13744;DHT22;6943;52.368;9.966;2023-09-08T14:14:52;29.40;99.90
13744;DHT22;6943;52.368;9.966;2023-09-08T14:17:17;29.40;99.90
13744;DHT22;6943;52.368;9.966;2023-09-08T14:19:43;29.40;99.90
13744;DHT22;6943;52.368;9.966;2023-09-08T14:22:08;29.40;99.90
13744;DHT22;6943;52.368;9.966;2023-09-08T14:24:34;29.40;99.90
13744;DHT22;6943;52.368;9.966;2023-09-08T14:26:59;29.50;99.90
13744;DHT22;6943;52.368;9.966;2023-09-08T14:29:25;29.50;99.90
13744;DHT22;6943;52.368;9.966;2023-09-08T14:31:50;29.50;99.90
13744;DHT22;6943;52.368;9.966;2023-09-08T14:34:16;29.50;99.90
13744;DHT22;6943;52.368;9.966;2023-09-08T14:36:41;29.50;99.90
13744;DHT22;6943;52.368;9.966;2023-09-08T14:39:07;29.50;99.90
13744;DHT22;6943;52.368;9.966;2023-09-08T14:41:32;29.50;99.90
13744;DHT22;6943;52.368;9.966;2023-09-08T14:43:58;29.70;99.90
13744;DHT22;6943;52.368;9.966;2023-09-08T14:46:23;29.50;99.90
13744;DHT22;6943;52.368;9.966;2023-09-08T14:48:49;29.50;99.90
13744;DHT22;6943;52.368;9.966;2023-09-08T14:51:14;29.40;99.90
13744;DHT22;6943;52.368;9.966;2023-09-08T14:53:40;29.40;99.90
13744;DHT22;6943;52.368;9.966;2023-09-08T14:56:06;29.40;99.90
13744;DHT22;6943;52.368;9.966;2023-09-08T14:58:32;29.40;99.90
13744;DHT22;6943;52.368;9.966;2023-09-08T15:01:05;29.30;99.90
13744;DHT22;6943;52.368;9.966;2023-09-08T15:03:34;29.30;99.90
13744;DHT22;6943;52.368;9.966;2023-09-08T15:06:00;29.30;99.90
13744;DHT22;6943;52.368;9.966;2023-09-08T15:08:26;29.40;99.90
13744;DHT22;6943;52.368;9.966;2023-09-08T15:10:51;29.50;99.90
13744;DHT22;6943;52.368;9.966;2023-09-08T15:13:17;29.40;99.90
13744;DHT22;6943;52.368;9.966;2023-09-08T15:15:42;29.40;99.90
13744;DHT22;6943;52.368;9.966;2023-09-08T15:18:08;29.30;99.90
13744;DHT22;6943;52.368;9.966;2023-09-08T15:20:33;29.30;99.90
13744;DHT22;6943;52.368;9.966;2023-09-08T15:22:59;29.30;99.90
13744;DHT22;6943;52.368;9.966;2023-09-08T15:25:24;29.20;99.90
13744;DHT22;6943;52.368;9.966;2023-09-08T15:27:50;29.20;99.90
13744;DHT22;6943;52.368;9.966;2023-09-08T15:30:15;29.10;99.90
13744;DHT22;6943;52.368;9.966;2023-09-08T15:32:41;29.00;99.90
13744;DHT22;6943;52.368;9.966;2023-09-08T15:35:07;29.00;99.90
13744;DHT22;6943;52.368;9.966;2023-09-08T15:37:33;28.90;99.90
13744;DHT22;6943;52.368;9.966;2023-09-08T15:39:59;28.90;99.90
13744;DHT22;6943;52.368;9.966;2023-09-08T15:42:25;28.90;99.90
13744;DHT22;6943;52.368;9.966;2023-09-08T15:44:51;28.80;99.90
13744;DHT22;6943;52.368;9.966;2023-09-08T15:47:17;28.80;99.90
13744;DHT22;6943;52.368;9.966;2023-09-08T15:49:44;28.80;99.90
13744;DHT22;6943;52.368;9.966;2023-09-08T15:52:09;28.80;99.90
13744;DHT22;6943;52.368;9.966;2023-09-08T15:54:35;28.80;99.90